Aline, OK

8:51 AM CST on November 22, 2014 (GMT -0600)
West | Change Station
CLOSE
Current Station
Personal Weather Station
Location: Cherokee, OK
Elevation: 1201 ft
Nearby Weather Stations
Active Advisory: Dense Fog Advisory

Elev 1201 ft 36.75 °N, 98.36 °W | Updated 4 minutes ago

Fog
Fog
41.4 °F
Feels Like 41 °F
N
0.0
Wind Variable Wind from NNW

Today
High -- | Low -- °F
--% Chance of Precip.
Yesterday
High -- | Low -- °F
Precip. -- in
7:18 AM 5:21 PM
New Moon, 0% visible
Pressure 29.96 in
Visibility 0.2 miles
Clouds Overcast 200 ft
Windchill 41 °F
Dew Point 40 °F
Humidity 95%
Rainfall 0.00 in
Snow Depth Not available.
UV 0.0 out of 12
Pollen .20 out of 12
Air Quality Not available.
Flu Activity Not available.
METAR KAVK 221435Z AUTO 00000KT M1/4SM FG OVC002 05/05 A2996 RMK AO2 LTG DSNT SE AND S

More Conditions Fewer Conditions

Pressure 29.96 in
Visibility 0.2 miles
Clouds Overcast 200 ft
Windchill 41 °F
Dew Point 40 °F
Humidity 95%
Rainfall 0.00 in
Snow Depth Not available.
UV 0.0 out of 12
Pollen .20 out of 12
Air Quality Not available.
Flu Activity Not available.
METAR KAVK 221435Z AUTO 00000KT M1/4SM FG OVC002 05/05 A2996 RMK AO2 LTG DSNT SE AND S

More Conditions Fewer Conditions

10-Day Weather Forecast

Almanac

Astronomy

Nov. 22, 2014 Rise Set
Actual Time
Civil Twilight
Nautical Twilight
Astronomical Twilight
Moon
Length of Visible Light
Length of Day
Tomorrow will be .
, % of the Moon is Illuminated

Today's Extremes

State Highs State Lows

Community

WunderPhotos

Upload Photos

1,772,823 photos uploaded!

WunderBlogs® & News

Nearby

Air Quality

  Air Quality AQ Index Pollutant
Not available.

Snow Depth

Station Depth Elevation

Earthquake Activity

City Distance Mag. Time & Date
Minimum magnitude displayed is 2.5.

Coastal Water Temperatures

Place Temperature

Nearby Weather Stations